sensor_id;sensor_type;location;lat;lon;timestamp;P1;durP1;ratioP1;P2;durP2;ratioP2
18986;SDS011;9627;59.236;18.142;2022-10-31T09:37:09;5.47;;;1.75;;
18986;SDS011;9627;59.236;18.142;2022-10-31T09:39:36;8.95;;;2.30;;
18986;SDS011;9627;59.236;18.142;2022-10-31T09:42:22;119.55;;;16.08;;
18986;SDS011;9627;59.236;18.142;2022-10-31T09:44:59;422.23;;;55.03;;
18986;SDS011;9627;59.236;18.142;2022-10-31T09:47:33;521.10;;;85.27;;
18986;SDS011;9627;59.236;18.142;2022-10-31T09:50:12;505.43;;;59.43;;
18986;SDS011;9627;59.236;18.142;2022-10-31T09:52:43;399.67;;;53.43;;
18986;SDS011;9627;59.236;18.142;2022-10-31T09:55:14;523.07;;;67.03;;
18986;SDS011;9627;59.236;18.142;2022-10-31T09:57:41;68.65;;;20.88;;
18986;SDS011;9627;59.236;18.142;2022-10-31T10:00:10;1.15;;;0.80;;
18986;SDS011;9627;59.236;18.142;2022-10-31T10:02:43;511.97;;;67.73;;
18986;SDS011;9627;59.236;18.142;2022-10-31T10:05:12;525.20;;;63.90;;
18986;SDS011;9627;59.236;18.142;2022-10-31T10:07:44;506.97;;;68.10;;
18986;SDS011;9627;59.236;18.142;2022-10-31T10:10:14;448.87;;;56.40;;
18986;SDS011;9627;59.236;18.142;2022-10-31T10:12:46;513.60;;;64.10;;
18986;SDS011;9627;59.236;18.142;2022-10-31T10:15:26;508.00;;;64.27;;
18986;SDS011;9627;59.236;18.142;2022-10-31T10:17:57;479.33;;;62.37;;
18986;SDS011;9627;59.236;18.142;2022-10-31T10:20:31;525.50;;;60.07;;
18986;SDS011;9627;59.236;18.142;2022-10-31T10:23:05;509.80;;;60.93;;
18986;SDS011;9627;59.236;18.142;2022-10-31T10:25:37;464.20;;;65.93;;
18986;SDS011;9627;59.236;18.142;2022-10-31T10:28:08;538.33;;;65.37;;
18986;SDS011;9627;59.236;18.142;2022-10-31T10:30:38;545.13;;;67.60;;
18986;SDS011;9627;59.236;18.142;2022-10-31T10:33:08;558.27;;;69.23;;
18986;SDS011;9627;59.236;18.142;2022-10-31T10:35:39;521.87;;;69.70;;
18986;SDS011;9627;59.236;18.142;2022-10-31T10:38:12;284.55;;;61.47;;
18986;SDS011;9627;59.236;18.142;2022-10-31T10:40:41;554.17;;;70.37;;
18986;SDS011;9627;59.236;18.142;2022-10-31T10:43:16;545.90;;;66.17;;
18986;SDS011;9627;59.236;18.142;2022-10-31T10:45:49;540.53;;;67.40;;
18986;SDS011;9627;59.236;18.142;2022-10-31T10:48:37;413.77;;;67.30;;
18986;SDS011;9627;59.236;18.142;2022-10-31T10:51:06;288.60;;;61.27;;
18986;SDS011;9627;59.236;18.142;2022-10-31T10:56:30;364.83;;;68.63;;
18986;SDS011;9627;59.236;18.142;2022-10-31T10:58:59;242.93;;;61.43;;
18986;SDS011;9627;59.236;18.142;2022-10-31T11:01:26;481.80;;;72.30;;
18986;SDS011;9627;59.236;18.142;2022-10-31T11:03:53;550.70;;;70.83;;
18986;SDS011;9627;59.236;18.142;2022-10-31T11:06:20;540.57;;;76.27;;
18986;SDS011;9627;59.236;18.142;2022-10-31T11:08:51;526.87;;;77.27;;
18986;SDS011;9627;59.236;18.142;2022-10-31T11:11:22;548.90;;;77.73;;
18986;SDS011;9627;59.236;18.142;2022-10-31T11:13:53;575.60;;;79.77;;
18986;SDS011;9627;59.236;18.142;2022-10-31T11:16:26;574.73;;;79.27;;
18986;SDS011;9627;59.236;18.142;2022-10-31T11:18:54;575.00;;;79.00;;
18986;SDS011;9627;59.236;18.142;2022-10-31T11:21:31;576.53;;;79.63;;
18986;SDS011;9627;59.236;18.142;2022-10-31T11:40:03;526.37;;;87.20;;
18986;SDS011;9627;59.236;18.142;2022-10-31T11:42:36;499.17;;;70.60;;
18986;SDS011;9627;59.236;18.142;2022-10-31T11:45:07;353.43;;;57.87;;
18986;SDS011;9627;59.236;18.142;2022-10-31T11:47:42;517.77;;;80.40;;
18986;SDS011;9627;59.236;18.142;2022-10-31T11:50:17;488.10;;;66.13;;
18986;SDS011;9627;59.236;18.142;2022-10-31T11:52:45;463.23;;;58.50;;
18986;SDS011;9627;59.236;18.142;2022-10-31T11:55:28;490.27;;;72.97;;
18986;SDS011;9627;59.236;18.142;2022-10-31T11:57:57;538.63;;;71.23;;
18986;SDS011;9627;59.236;18.142;2022-10-31T12:00:25;529.37;;;77.83;;
18986;SDS011;9627;59.236;18.142;2022-10-31T12:03:03;529.73;;;83.70;;
18986;SDS011;9627;59.236;18.142;2022-10-31T12:05:31;540.23;;;84.23;;
18986;SDS011;9627;59.236;18.142;2022-10-31T12:07:59;541.90;;;85.73;;
18986;SDS011;9627;59.236;18.142;2022-10-31T12:10:30;543.47;;;96.67;;
18986;SDS011;9627;59.236;18.142;2022-10-31T12:13:02;511.00;;;65.47;;
18986;SDS011;9627;59.236;18.142;2022-10-31T12:15:34;470.07;;;59.73;;
18986;SDS011;9627;59.236;18.142;2022-10-31T12:18:12;520.07;;;67.13;;
18986;SDS011;9627;59.236;18.142;2022-10-31T12:20:57;544.80;;;107.40;;
18986;SDS011;9627;59.236;18.142;2022-10-31T12:23:38;564.13;;;99.43;;
18986;SDS011;9627;59.236;18.142;2022-10-31T12:26:16;549.77;;;99.10;;
18986;SDS011;9627;59.236;18.142;2022-10-31T12:28:52;562.40;;;120.47;;
18986;SDS011;9627;59.236;18.142;2022-10-31T12:31:43;554.60;;;110.90;;
18986;SDS011;9627;59.236;18.142;2022-10-31T12:34:27;551.83;;;119.50;;
18986;SDS011;9627;59.236;18.142;2022-10-31T12:36:59;554.47;;;117.40;;
18986;SDS011;9627;59.236;18.142;2022-10-31T12:39:30;549.20;;;108.03;;
18986;SDS011;9627;59.236;18.142;2022-10-31T12:42:01;549.60;;;77.33;;
18986;SDS011;9627;59.236;18.142;2022-10-31T12:44:39;551.13;;;83.43;;
18986;SDS011;9627;59.236;18.142;2022-10-31T12:47:18;555.23;;;85.90;;
18986;SDS011;9627;59.236;18.142;2022-10-31T12:49:51;560.70;;;86.47;;
18986;SDS011;9627;59.236;18.142;2022-10-31T12:52:25;564.57;;;89.13;;
18986;SDS011;9627;59.236;18.142;2022-10-31T12:54:57;562.53;;;86.17;;
18986;SDS011;9627;59.236;18.142;2022-10-31T12:57:31;562.20;;;92.13;;
18986;SDS011;9627;59.236;18.142;2022-10-31T13:00:00;564.23;;;92.13;;
18986;SDS011;9627;59.236;18.142;2022-10-31T13:02:29;566.70;;;89.50;;
18986;SDS011;9627;59.236;18.142;2022-10-31T13:05:00;568.20;;;93.13;;
18986;SDS011;9627;59.236;18.142;2022-10-31T13:07:30;568.00;;;89.43;;
18986;SDS011;9627;59.236;18.142;2022-10-31T13:09:59;572.10;;;93.03;;
18986;SDS011;9627;59.236;18.142;2022-10-31T13:12:27;571.83;;;87.40;;
18986;SDS011;9627;59.236;18.142;2022-10-31T13:14:57;574.57;;;88.87;;
18986;SDS011;9627;59.236;18.142;2022-10-31T13:17:26;576.77;;;87.33;;
18986;SDS011;9627;59.236;18.142;2022-10-31T13:19:55;574.27;;;91.03;;
18986;SDS011;9627;59.236;18.142;2022-10-31T13:22:26;584.10;;;94.53;;
18986;SDS011;9627;59.236;18.142;2022-10-31T13:24:56;585.87;;;94.07;;
18986;SDS011;9627;59.236;18.142;2022-10-31T13:27:26;586.97;;;96.47;;
18986;SDS011;9627;59.236;18.142;2022-10-31T13:29:58;567.37;;;96.63;;
18986;SDS011;9627;59.236;18.142;2022-10-31T13:32:26;570.73;;;96.63;;
18986;SDS011;9627;59.236;18.142;2022-10-31T13:34:53;568.67;;;96.90;;
18986;SDS011;9627;59.236;18.142;2022-10-31T13:37:23;567.20;;;94.13;;
18986;SDS011;9627;59.236;18.142;2022-10-31T13:40:02;568.90;;;89.43;;
18986;SDS011;9627;59.236;18.142;2022-10-31T13:42:46;573.20;;;88.60;;
18986;SDS011;9627;59.236;18.142;2022-10-31T13:45:18;566.53;;;87.70;;
18986;SDS011;9627;59.236;18.142;2022-10-31T13:47:54;570.50;;;90.10;;
18986;SDS011;9627;59.236;18.142;2022-10-31T13:50:22;573.03;;;89.07;;
18986;SDS011;9627;59.236;18.142;2022-10-31T13:52:49;582.37;;;91.73;;
18986;SDS011;9627;59.236;18.142;2022-10-31T13:58:04;581.73;;;90.60;;
18986;SDS011;9627;59.236;18.142;2022-10-31T14:00:33;582.10;;;90.07;;
18986;SDS011;9627;59.236;18.142;2022-10-31T14:03:00;582.23;;;91.40;;
18986;SDS011;9627;59.236;18.142;2022-10-31T14:05:28;580.80;;;89.53;;
18986;SDS011;9627;59.236;18.142;2022-10-31T14:07:56;584.63;;;90.60;;
18986;SDS011;9627;59.236;18.142;2022-10-31T14:10:25;581.13;;;93.33;;
18986;SDS011;9627;59.236;18.142;2022-10-31T14:12:53;581.60;;;92.43;;
18986;SDS011;9627;59.236;18.142;2022-10-31T14:15:32;581.27;;;91.63;;
18986;SDS011;9627;59.236;18.142;2022-10-31T14:18:02;576.83;;;92.10;;
18986;SDS011;9627;59.236;18.142;2022-10-31T14:20:34;575.57;;;89.07;;
18986;SDS011;9627;59.236;18.142;2022-10-31T14:26:07;570.17;;;84.67;;
18986;SDS011;9627;59.236;18.142;2022-10-31T14:28:46;574.20;;;85.17;;
18986;SDS011;9627;59.236;18.142;2022-10-31T14:31:26;576.13;;;86.03;;
18986;SDS011;9627;59.236;18.142;2022-10-31T14:33:53;573.73;;;87.47;;
18986;SDS011;9627;59.236;18.142;2022-10-31T14:36:21;574.40;;;85.63;;
18986;SDS011;9627;59.236;18.142;2022-10-31T14:38:52;574.40;;;87.97;;
18986;SDS011;9627;59.236;18.142;2022-10-31T14:41:34;553.27;;;86.77;;
18986;SDS011;9627;59.236;18.142;2022-10-31T14:44:08;581.00;;;84.50;;
18986;SDS011;9627;59.236;18.142;2022-10-31T14:46:40;567.67;;;80.13;;
18986;SDS011;9627;59.236;18.142;2022-10-31T14:51:53;568.20;;;83.87;;
18986;SDS011;9627;59.236;18.142;2022-10-31T14:54:23;560.27;;;91.90;;
18986;SDS011;9627;59.236;18.142;2022-10-31T14:56:52;555.43;;;90.27;;
18986;SDS011;9627;59.236;18.142;2022-10-31T14:59:21;559.00;;;83.93;;
18986;SDS011;9627;59.236;18.142;2022-10-31T15:01:54;562.10;;;79.63;;
18986;SDS011;9627;59.236;18.142;2022-10-31T15:04:24;565.03;;;82.23;;
18986;SDS011;9627;59.236;18.142;2022-10-31T15:06:59;564.47;;;81.07;;
18986;SDS011;9627;59.236;18.142;2022-10-31T15:09:27;568.57;;;80.23;;
18986;SDS011;9627;59.236;18.142;2022-10-31T15:11:55;568.33;;;79.50;;
18986;SDS011;9627;59.236;18.142;2022-10-31T15:14:23;568.43;;;79.37;;
18986;SDS011;9627;59.236;18.142;2022-10-31T15:16:50;567.87;;;79.97;;
18986;SDS011;9627;59.236;18.142;2022-10-31T16:23:59;558.50;;;80.93;;
18986;SDS011;9627;59.236;18.142;2022-10-31T16:26:28;551.60;;;67.70;;
18986;SDS011;9627;59.236;18.142;2022-10-31T16:28:56;540.37;;;67.50;;
18986;SDS011;9627;59.236;18.142;2022-10-31T16:31:28;554.60;;;63.50;;
18986;SDS011;9627;59.236;18.142;2022-10-31T16:34:04;543.67;;;62.10;;
18986;SDS011;9627;59.236;18.142;2022-10-31T16:36:37;550.63;;;63.37;;
18986;SDS011;9627;59.236;18.142;2022-10-31T16:39:06;545.43;;;64.37;;
18986;SDS011;9627;59.236;18.142;2022-10-31T16:41:34;554.30;;;69.20;;
18986;SDS011;9627;59.236;18.142;2022-10-31T16:44:02;559.20;;;67.93;;
18986;SDS011;9627;59.236;18.142;2022-10-31T16:46:31;565.90;;;67.87;;
18986;SDS011;9627;59.236;18.142;2022-10-31T16:48:58;559.43;;;68.50;;
18986;SDS011;9627;59.236;18.142;2022-10-31T16:51:25;560.93;;;69.70;;
18986;SDS011;9627;59.236;18.142;2022-10-31T16:53:52;558.67;;;70.47;;
18986;SDS011;9627;59.236;18.142;2022-10-31T16:56:23;557.43;;;67.53;;
18986;SDS011;9627;59.236;18.142;2022-10-31T16:58:54;562.80;;;67.80;;
18986;SDS011;9627;59.236;18.142;2022-10-31T17:01:21;566.20;;;69.10;;
18986;SDS011;9627;59.236;18.142;2022-10-31T17:03:48;571.20;;;69.13;;
18986;SDS011;9627;59.236;18.142;2022-10-31T17:06:15;569.30;;;67.30;;
18986;SDS011;9627;59.236;18.142;2022-10-31T17:08:42;562.70;;;65.03;;
18986;SDS011;9627;59.236;18.142;2022-10-31T17:11:12;569.13;;;68.97;;
18986;SDS011;9627;59.236;18.142;2022-10-31T17:13:45;525.10;;;74.53;;
18986;SDS011;9627;59.236;18.142;2022-10-31T17:16:12;570.23;;;66.70;;
18986;SDS011;9627;59.236;18.142;2022-10-31T17:18:40;564.33;;;64.70;;
18986;SDS011;9627;59.236;18.142;2022-10-31T17:21:09;572.00;;;66.60;;
18986;SDS011;9627;59.236;18.142;2022-10-31T17:23:37;570.00;;;65.67;;
18986;SDS011;9627;59.236;18.142;2022-10-31T17:26:04;569.83;;;63.57;;
18986;SDS011;9627;59.236;18.142;2022-10-31T17:28:32;569.87;;;69.90;;
18986;SDS011;9627;59.236;18.142;2022-10-31T17:31:01;574.53;;;66.20;;
18986;SDS011;9627;59.236;18.142;2022-10-31T17:33:28;561.77;;;65.23;;
18986;SDS011;9627;59.236;18.142;2022-10-31T17:35:55;561.53;;;65.77;;
18986;SDS011;9627;59.236;18.142;2022-10-31T17:38:21;563.17;;;65.03;;
18986;SDS011;9627;59.236;18.142;2022-10-31T17:40:48;567.60;;;67.53;;
18986;SDS011;9627;59.236;18.142;2022-10-31T17:43:15;566.70;;;71.90;;
18986;SDS011;9627;59.236;18.142;2022-10-31T17:45:42;568.07;;;80.10;;
18986;SDS011;9627;59.236;18.142;2022-10-31T17:48:10;572.43;;;68.53;;
18986;SDS011;9627;59.236;18.142;2022-10-31T17:50:38;569.60;;;65.77;;
18986;SDS011;9627;59.236;18.142;2022-10-31T17:53:05;559.47;;;72.53;;
18986;SDS011;9627;59.236;18.142;2022-10-31T17:55:32;562.33;;;64.57;;
18986;SDS011;9627;59.236;18.142;2022-10-31T17:57:59;554.73;;;65.10;;
18986;SDS011;9627;59.236;18.142;2022-10-31T18:00:26;565.53;;;68.03;;
18986;SDS011;9627;59.236;18.142;2022-10-31T18:02:52;564.10;;;67.57;;
18986;SDS011;9627;59.236;18.142;2022-10-31T18:05:21;567.20;;;67.83;;
18986;SDS011;9627;59.236;18.142;2022-10-31T18:07:48;567.03;;;68.90;;
18986;SDS011;9627;59.236;18.142;2022-10-31T18:10:15;567.03;;;65.77;;
18986;SDS011;9627;59.236;18.142;2022-10-31T18:12:42;554.53;;;70.77;;
18986;SDS011;9627;59.236;18.142;2022-10-31T18:15:09;561.93;;;83.10;;
18986;SDS011;9627;59.236;18.142;2022-10-31T18:17:36;554.03;;;67.27;;
18986;SDS011;9627;59.236;18.142;2022-10-31T18:20:03;557.80;;;71.63;;
18986;SDS011;9627;59.236;18.142;2022-10-31T18:22:33;562.07;;;71.80;;
18986;SDS011;9627;59.236;18.142;2022-10-31T18:24:59;563.30;;;72.10;;
18986;SDS011;9627;59.236;18.142;2022-10-31T18:27:26;562.30;;;67.90;;
18986;SDS011;9627;59.236;18.142;2022-10-31T18:29:53;564.00;;;79.80;;
18986;SDS011;9627;59.236;18.142;2022-10-31T18:32:20;564.87;;;78.00;;
18986;SDS011;9627;59.236;18.142;2022-10-31T18:34:47;563.93;;;75.87;;
18986;SDS011;9627;59.236;18.142;2022-10-31T18:37:14;565.60;;;88.27;;
18986;SDS011;9627;59.236;18.142;2022-10-31T18:39:42;566.13;;;95.53;;
18986;SDS011;9627;59.236;18.142;2022-10-31T18:42:10;561.17;;;82.27;;
18986;SDS011;9627;59.236;18.142;2022-10-31T18:44:36;558.80;;;78.27;;
18986;SDS011;9627;59.236;18.142;2022-10-31T18:47:04;559.67;;;67.23;;
18986;SDS011;9627;59.236;18.142;2022-10-31T18:49:31;560.13;;;64.77;;
18986;SDS011;9627;59.236;18.142;2022-10-31T18:51:58;559.67;;;66.70;;
18986;SDS011;9627;59.236;18.142;2022-10-31T18:54:25;553.57;;;81.77;;
18986;SDS011;9627;59.236;18.142;2022-10-31T18:56:53;561.67;;;70.53;;
18986;SDS011;9627;59.236;18.142;2022-10-31T18:59:20;563.30;;;69.10;;
18986;SDS011;9627;59.236;18.142;2022-10-31T19:01:47;566.00;;;70.60;;
18986;SDS011;9627;59.236;18.142;2022-10-31T19:04:15;565.17;;;69.93;;
18986;SDS011;9627;59.236;18.142;2022-10-31T19:06:42;568.50;;;73.63;;
18986;SDS011;9627;59.236;18.142;2022-10-31T19:09:08;562.90;;;73.67;;
18986;SDS011;9627;59.236;18.142;2022-10-31T19:11:36;558.73;;;68.00;;
18986;SDS011;9627;59.236;18.142;2022-10-31T19:14:06;550.43;;;74.60;;
18986;SDS011;9627;59.236;18.142;2022-10-31T19:16:35;549.13;;;79.93;;
18986;SDS011;9627;59.236;18.142;2022-10-31T19:19:02;550.87;;;82.27;;
18986;SDS011;9627;59.236;18.142;2022-10-31T19:21:29;553.10;;;100.53;;
18986;SDS011;9627;59.236;18.142;2022-10-31T19:23:57;549.90;;;90.83;;
18986;SDS011;9627;59.236;18.142;2022-10-31T19:26:24;566.03;;;119.10;;
18986;SDS011;9627;59.236;18.142;2022-10-31T19:28:53;542.90;;;96.23;;
18986;SDS011;9627;59.236;18.142;2022-10-31T19:31:23;549.47;;;83.83;;
18986;SDS011;9627;59.236;18.142;2022-10-31T19:33:50;557.80;;;93.90;;
18986;SDS011;9627;59.236;18.142;2022-10-31T19:36:18;568.50;;;110.43;;
18986;SDS011;9627;59.236;18.142;2022-10-31T19:38:46;552.10;;;87.37;;
18986;SDS011;9627;59.236;18.142;2022-10-31T19:41:15;545.73;;;115.10;;
18986;SDS011;9627;59.236;18.142;2022-10-31T19:43:44;555.77;;;107.77;;
18986;SDS011;9627;59.236;18.142;2022-10-31T19:46:11;533.93;;;75.77;;
18986;SDS011;9627;59.236;18.142;2022-10-31T19:48:41;548.87;;;83.80;;
18986;SDS011;9627;59.236;18.142;2022-10-31T19:51:09;542.43;;;106.93;;
18986;SDS011;9627;59.236;18.142;2022-10-31T19:53:37;567.30;;;117.70;;
18986;SDS011;9627;59.236;18.142;2022-10-31T19:56:09;566.13;;;100.33;;
18986;SDS011;9627;59.236;18.142;2022-10-31T19:58:37;563.73;;;99.37;;
18986;SDS011;9627;59.236;18.142;2022-10-31T20:01:07;565.63;;;102.53;;
18986;SDS011;9627;59.236;18.142;2022-10-31T20:03:35;563.30;;;87.00;;
18986;SDS011;9627;59.236;18.142;2022-10-31T20:06:06;571.73;;;86.97;;
18986;SDS011;9627;59.236;18.142;2022-10-31T20:08:36;561.80;;;101.87;;
18986;SDS011;9627;59.236;18.142;2022-10-31T20:11:03;559.60;;;87.20;;
18986;SDS011;9627;59.236;18.142;2022-10-31T20:13:31;570.37;;;87.10;;
18986;SDS011;9627;59.236;18.142;2022-10-31T20:15:59;551.90;;;76.67;;
18986;SDS011;9627;59.236;18.142;2022-10-31T20:18:27;568.97;;;85.50;;
18986;SDS011;9627;59.236;18.142;2022-10-31T20:20:59;562.60;;;89.43;;
18986;SDS011;9627;59.236;18.142;2022-10-31T20:23:29;568.23;;;80.70;;
18986;SDS011;9627;59.236;18.142;2022-10-31T20:25:57;571.47;;;133.53;;
18986;SDS011;9627;59.236;18.142;2022-10-31T20:28:24;567.90;;;95.27;;
18986;SDS011;9627;59.236;18.142;2022-10-31T20:30:51;567.30;;;95.90;;
18986;SDS011;9627;59.236;18.142;2022-10-31T20:33:18;568.10;;;85.27;;
18986;SDS011;9627;59.236;18.142;2022-10-31T20:35:46;564.70;;;92.50;;
18986;SDS011;9627;59.236;18.142;2022-10-31T20:38:13;577.40;;;120.33;;
18986;SDS011;9627;59.236;18.142;2022-10-31T20:40:42;561.37;;;93.37;;
18986;SDS011;9627;59.236;18.142;2022-10-31T20:43:10;545.30;;;87.60;;
18986;SDS011;9627;59.236;18.142;2022-10-31T20:45:37;580.10;;;135.77;;
18986;SDS011;9627;59.236;18.142;2022-10-31T20:48:04;562.43;;;96.33;;
18986;SDS011;9627;59.236;18.142;2022-10-31T20:50:31;553.43;;;96.40;;
18986;SDS011;9627;59.236;18.142;2022-10-31T20:52:58;541.23;;;84.47;;
18986;SDS011;9627;59.236;18.142;2022-10-31T20:55:25;566.50;;;107.13;;
18986;SDS011;9627;59.236;18.142;2022-10-31T20:57:54;555.43;;;90.87;;
18986;SDS011;9627;59.236;18.142;2022-10-31T21:00:21;564.73;;;107.87;;
18986;SDS011;9627;59.236;18.142;2022-10-31T21:02:48;567.20;;;91.20;;
18986;SDS011;9627;59.236;18.142;2022-10-31T21:05:15;565.43;;;115.87;;
18986;SDS011;9627;59.236;18.142;2022-10-31T21:07:42;556.33;;;91.00;;
18986;SDS011;9627;59.236;18.142;2022-10-31T21:10:09;565.67;;;94.10;;
18986;SDS011;9627;59.236;18.142;2022-10-31T21:12:40;561.73;;;122.23;;
18986;SDS011;9627;59.236;18.142;2022-10-31T21:15:10;565.50;;;109.13;;
18986;SDS011;9627;59.236;18.142;2022-10-31T21:17:39;573.30;;;139.63;;
18986;SDS011;9627;59.236;18.142;2022-10-31T21:20:07;575.50;;;148.33;;
18986;SDS011;9627;59.236;18.142;2022-10-31T21:22:35;570.80;;;124.57;;
18986;SDS011;9627;59.236;18.142;2022-10-31T21:25:02;571.70;;;123.23;;
18986;SDS011;9627;59.236;18.142;2022-10-31T21:27:29;578.33;;;147.00;;
18986;SDS011;9627;59.236;18.142;2022-10-31T21:29:56;572.23;;;125.90;;
18986;SDS011;9627;59.236;18.142;2022-10-31T21:32:25;575.87;;;141.93;;
18986;SDS011;9627;59.236;18.142;2022-10-31T21:34:51;571.83;;;132.80;;
18986;SDS011;9627;59.236;18.142;2022-10-31T21:37:18;557.13;;;95.97;;
18986;SDS011;9627;59.236;18.142;2022-10-31T21:39:45;559.10;;;113.10;;
18986;SDS011;9627;59.236;18.142;2022-10-31T21:42:12;543.47;;;64.70;;
18986;SDS011;9627;59.236;18.142;2022-10-31T21:44:39;506.30;;;53.00;;
18986;SDS011;9627;59.236;18.142;2022-10-31T21:47:05;407.07;;;41.73;;
18986;SDS011;9627;59.236;18.142;2022-10-31T21:49:34;550.73;;;86.70;;
18986;SDS011;9627;59.236;18.142;2022-10-31T21:52:00;548.17;;;84.77;;
18986;SDS011;9627;59.236;18.142;2022-10-31T21:54:27;557.60;;;114.70;;
18986;SDS011;9627;59.236;18.142;2022-10-31T21:56:54;547.80;;;108.33;;
18986;SDS011;9627;59.236;18.142;2022-10-31T21:59:21;548.87;;;100.33;;
18986;SDS011;9627;59.236;18.142;2022-10-31T22:01:48;541.10;;;72.87;;
18986;SDS011;9627;59.236;18.142;2022-10-31T22:04:15;547.70;;;103.77;;
18986;SDS011;9627;59.236;18.142;2022-10-31T22:06:44;525.97;;;66.57;;
18986;SDS011;9627;59.236;18.142;2022-10-31T22:09:12;525.87;;;69.70;;
18986;SDS011;9627;59.236;18.142;2022-10-31T22:11:40;408.43;;;44.67;;
18986;SDS011;9627;59.236;18.142;2022-10-31T22:14:09;524.53;;;56.93;;
18986;SDS011;9627;59.236;18.142;2022-10-31T22:16:36;509.27;;;51.47;;
18986;SDS011;9627;59.236;18.142;2022-10-31T22:19:04;360.97;;;37.83;;
18986;SDS011;9627;59.236;18.142;2022-10-31T22:21:34;341.00;;;36.13;;
18986;SDS011;9627;59.236;18.142;2022-10-31T22:24:03;363.40;;;37.97;;
18986;SDS011;9627;59.236;18.142;2022-10-31T22:26:30;342.23;;;37.03;;
18986;SDS011;9627;59.236;18.142;2022-10-31T22:28:57;356.23;;;38.00;;
18986;SDS011;9627;59.236;18.142;2022-10-31T22:31:25;353.53;;;37.40;;
18986;SDS011;9627;59.236;18.142;2022-10-31T22:33:52;473.60;;;50.00;;
18986;SDS011;9627;59.236;18.142;2022-10-31T22:36:20;475.03;;;49.30;;
18986;SDS011;9627;59.236;18.142;2022-10-31T22:38:47;461.90;;;48.10;;
18986;SDS011;9627;59.236;18.142;2022-10-31T22:41:16;458.03;;;48.77;;
18986;SDS011;9627;59.236;18.142;2022-10-31T22:43:43;373.97;;;39.27;;
18986;SDS011;9627;59.236;18.142;2022-10-31T22:46:11;482.80;;;50.03;;
18986;SDS011;9627;59.236;18.142;2022-10-31T22:48:38;360.27;;;38.50;;
18986;SDS011;9627;59.236;18.142;2022-10-31T22:51:05;376.90;;;39.10;;
18986;SDS011;9627;59.236;18.142;2022-10-31T22:53:32;491.50;;;50.97;;
18986;SDS011;9627;59.236;18.142;2022-10-31T22:55:59;356.03;;;37.67;;
18986;SDS011;9627;59.236;18.142;2022-10-31T22:58:29;353.10;;;38.27;;
18986;SDS011;9627;59.236;18.142;2022-10-31T23:00:55;373.10;;;39.17;;
18986;SDS011;9627;59.236;18.142;2022-10-31T23:03:22;495.77;;;50.83;;
18986;SDS011;9627;59.236;18.142;2022-10-31T23:05:55;489.17;;;49.67;;
18986;SDS011;9627;59.236;18.142;2022-10-31T23:08:22;480.63;;;49.40;;
18986;SDS011;9627;59.236;18.142;2022-10-31T23:10:48;350.17;;;38.37;;
18986;SDS011;9627;59.236;18.142;2022-10-31T23:13:15;345.40;;;38.03;;
18986;SDS011;9627;59.236;18.142;2022-10-31T23:16:02;325.37;;;35.70;;
18986;SDS011;9627;59.236;18.142;2022-10-31T23:18:31;477.57;;;49.17;;
18986;SDS011;9627;59.236;18.142;2022-10-31T23:20:59;350.97;;;37.60;;
18986;SDS011;9627;59.236;18.142;2022-10-31T23:23:26;473.87;;;49.37;;
18986;SDS011;9627;59.236;18.142;2022-10-31T23:25:53;460.73;;;47.43;;
18986;SDS011;9627;59.236;18.142;2022-10-31T23:28:37;345.53;;;37.40;;
18986;SDS011;9627;59.236;18.142;2022-10-31T23:31:06;348.77;;;37.07;;
18986;SDS011;9627;59.236;18.142;2022-10-31T23:33:32;349.90;;;38.53;;
18986;SDS011;9627;59.236;18.142;2022-10-31T23:35:59;452.13;;;48.20;;
18986;SDS011;9627;59.236;18.142;2022-10-31T23:38:26;463.50;;;49.03;;
18986;SDS011;9627;59.236;18.142;2022-10-31T23:40:53;459.87;;;48.37;;
18986;SDS011;9627;59.236;18.142;2022-10-31T23:43:20;454.43;;;49.50;;
18986;SDS011;9627;59.236;18.142;2022-10-31T23:45:46;341.47;;;37.07;;
18986;SDS011;9627;59.236;18.142;2022-10-31T23:48:15;344.83;;;37.17;;
18986;SDS011;9627;59.236;18.142;2022-10-31T23:50:45;447.93;;;48.37;;
18986;SDS011;9627;59.236;18.142;2022-10-31T23:53:12;324.60;;;34.50;;
18986;SDS011;9627;59.236;18.142;2022-10-31T23:55:39;445.93;;;48.23;;
18986;SDS011;9627;59.236;18.142;2022-10-31T23:58:06;453.13;;;47.80;;
